Time;durP1;ratioP1;P1;durP2;ratioP2;P2;SDS_P1;SDS_P2;PMS_P1;PMS_P2;Temp;Humidity;BMP_temperature;BMP_pressure;BME280_temperature;BME280_humidity;BME280_pressure;Samples;Min_cycle;Max_cycle;Signal;HPM_P1;HPM_P2
2021/04/05 00:02:10;;;;;;;38.88;20.62;;;;;;;5.72;99.48;100651.31;1756378;80;21070;-55
2021/04/05 00:04:38;;;;;;;42.38;23.15;;;;;;;5.72;99.39;100657.07;1767154;80;21059;-55
2021/04/05 00:07:06;;;;;;;37.85;21.55;;;;;;;5.68;99.32;100656.70;1755757;80;21669;-54
2021/04/05 00:09:35;;;;;;;45.23;24.40;;;;;;;5.66;99.37;100647.43;1757918;80;21170;-54
2021/04/05 00:12:04;;;;;;;35.98;22.05;;;;;;;5.67;99.53;100646.53;1771142;80;21164;-56
2021/04/05 00:14:32;;;;;;;39.92;22.32;;;;;;;5.68;99.64;100644.30;1756688;80;21178;-56
2021/04/05 00:17:00;;;;;;;39.25;20.35;;;;;;;5.72;99.63;100645.99;1755865;80;21062;-56
2021/04/05 00:19:27;;;;;;;45.25;20.97;;;;;;;5.73;99.59;100650.84;1767223;80;21421;-56
2021/04/05 00:21:55;;;;;;;42.38;21.68;;;;;;;5.71;99.55;100644.67;1760722;80;21136;-56
2021/04/05 00:24:24;;;;;;;33.53;19.40;;;;;;;5.68;99.56;100641.63;1772491;80;21154;-56
2021/04/05 00:26:53;;;;;;;36.33;19.05;;;;;;;5.65;99.57;100644.34;1758736;80;21129;-56
2021/04/05 00:29:21;;;;;;;35.52;19.42;;;;;;;5.61;99.58;100636.44;1762770;80;21566;-56
2021/04/05 00:31:50;;;;;;;33.50;18.92;;;;;;;5.57;99.63;100640.91;1771906;80;21412;-56
2021/04/05 00:34:18;;;;;;;31.40;16.40;;;;;;;5.57;99.87;100638.25;1758829;80;21156;-54
2021/04/05 00:36:46;;;;;;;27.90;16.77;;;;;;;5.59;99.94;100637.77;1758266;80;21160;-54
2021/04/05 00:39:13;;;;;;;28.17;15.65;;;;;;;5.54;99.76;100627.67;1779066;80;21552;-54
2021/04/05 00:41:41;;;;;;;21.75;12.05;;;;;;;5.46;99.79;100622.47;1756237;80;21160;-55
2021/04/05 00:44:09;;;;;;;27.42;13.30;;;;;;;5.46;99.79;100622.47;1760488;80;21520;-55
2021/04/05 00:46:37;;;;;;;21.35;12.25;;;;;;;5.40;99.97;100623.43;1771804;80;21061;-55
2021/04/05 00:49:05;;;;;;;23.52;13.25;;;;;;;5.35;99.90;100610.67;1766601;80;21157;-55
2021/04/05 00:51:35;;;;;;;21.27;13.65;;;;;;;5.27;100.00;100636.04;1774972;80;21124;-55
2021/04/05 00:54:03;;;;;;;21.93;12.23;;;;;;;5.27;100.00;100636.04;1776031;80;21145;-56
2021/04/05 00:56:30;;;;;;;17.95;10.32;;;;;;;5.26;100.00;100645.38;1750810;80;21353;-55
2021/04/05 00:58:59;;;;;;;18.45;10.18;;;;;;;5.26;100.00;100645.38;1760553;80;21191;-55
2021/04/05 01:01:27;;;;;;;16.02;9.30;;;;;;;5.27;100.00;100639.16;1771835;80;21041;-54
2021/04/05 01:03:55;;;;;;;16.70;8.33;;;;;;;5.29;100.00;100642.67;1772002;80;21105;-55
2021/04/05 01:06:29;;;;;;;16.77;9.75;;;;;;;5.29;100.00;100644.00;1767613;80;21547;-55
2021/04/05 01:08:57;;;;;;;16.03;10.17;;;;;;;5.31;100.00;100651.50;1776006;80;21669;-55
2021/04/05 01:11:27;;;;;;;15.58;9.05;;;;;;;5.32;100.00;100659.05;1781063;80;21814;-55
2021/04/05 01:13:55;;;;;;;14.87;8.85;;;;;;;5.32;100.00;100657.25;1772556;80;21547;-55
2021/04/05 01:16:27;;;;;;;13.78;8.65;;;;;;;5.34;100.00;100656.77;1772986;80;21117;-55
2021/04/05 01:18:56;;;;;;;27.37;13.48;;;;;;;5.36;99.83;100656.30;1759874;80;21143;-54
2021/04/05 01:21:24;;;;;;;19.48;11.43;;;;;;;5.37;99.70;100655.39;1760014;80;21691;-54
2021/04/05 01:23:51;;;;;;;15.45;9.08;;;;;;;5.39;99.51;100651.39;1769643;80;21175;-48
2021/04/05 01:26:19;;;;;;;21.57;12.28;;;;;;;5.40;99.04;100654.02;1771680;80;21100;-48
2021/04/05 01:28:48;;;;;;;20.12;12.73;;;;;;;5.39;98.84;100650.92;1754111;80;21054;-49
2021/04/05 01:31:16;;;;;;;14.83;9.60;;;;;;;5.41;98.62;100650.92;1763019;80;21184;-49
2021/04/05 01:33:44;;;;;;;16.05;9.28;;;;;;;5.44;98.50;100647.77;1750702;80;22917;-49
2021/04/05 01:36:16;;;;;;;16.50;9.50;;;;;;;5.47;98.18;100645.97;1761919;80;21197;-48
2021/04/05 01:38:52;;;;;;;16.30;9.18;;;;;;;5.51;97.66;100638.36;1767778;80;21109;-49
2021/04/05 01:41:25;;;;;;;14.43;8.90;;;;;;;5.51;97.66;100638.36;1755398;80;21053;-48
2021/04/05 01:43:53;;;;;;;16.42;9.33;;;;;;;5.50;97.51;100635.28;1766804;80;21518;-48
2021/04/05 01:46:23;;;;;;;13.05;8.08;;;;;;;5.47;97.35;100632.20;1769910;80;21173;-48
2021/04/05 01:48:53;;;;;;;15.58;9.20;;;;;;;5.42;97.23;100636.28;1750897;80;21186;-48
2021/04/05 01:51:23;;;;;;;15.43;7.65;;;;;;;5.38;97.28;100633.22;1751064;80;21164;-48
2021/04/05 01:53:51;;;;;;;16.97;8.88;;;;;;;5.33;97.15;100637.73;1771578;80;21082;-48
2021/04/05 01:56:19;;;;;;;12.93;8.23;;;;;;;5.27;97.35;100637.84;1762799;80;21067;-47
2021/04/05 01:58:49;;;;;;;13.65;9.00;;;;;;;5.27;97.35;100637.84;1750807;80;21552;-48
2021/04/05 02:01:21;;;;;;;13.98;9.43;;;;;;;5.26;97.39;100628.97;1775227;80;21073;-47
2021/04/05 02:03:48;;;;;;;13.38;9.50;;;;;;;5.25;97.46;100630.34;1760949;80;21097;-47
2021/04/05 02:06:21;;;;;;;13.35;8.73;;;;;;;5.21;97.41;100629.95;1763470;80;21129;-47
2021/04/05 02:08:52;;;;;;;16.93;8.93;;;;;;;5.19;97.33;100627.75;1714965;82;21600;-47
2021/04/05 02:11:32;;;;;;;15.20;9.58;;;;;;;5.14;97.28;100620.72;1763695;80;21364;-47
2021/04/05 02:14:03;;;;;;;14.85;8.55;;;;;;;5.14;97.22;100614.08;1761122;80;21181;-48
2021/04/05 02:16:30;;;;;;;14.90;9.48;;;;;;;5.08;96.42;100618.16;1753277;80;21117;-48
2021/04/05 02:18:59;;;;;;;15.28;9.35;;;;;;;5.01;95.87;100612.52;1760305;80;21153;-48
2021/04/05 02:21:28;;;;;;;17.85;11.35;;;;;;;4.94;95.70;100605.52;1775813;80;21058;-48
2021/04/05 02:24:04;;;;;;;21.48;12.20;;;;;;;4.87;95.38;100602.09;1755886;80;22280;-48
2021/04/05 02:26:35;;;;;;;17.45;10.80;;;;;;;4.84;95.27;100603.43;1763289;80;21628;-48
2021/04/05 02:29:04;;;;;;;16.12;10.23;;;;;;;4.76;95.29;100596.92;1778037;79;21221;-48
2021/04/05 02:31:32;;;;;;;14.80;9.28;;;;;;;4.75;95.29;100603.10;1782984;79;21194;-48
2021/04/05 02:34:02;;;;;;;15.93;9.13;;;;;;;4.71;95.18;100606.27;1766290;80;21185;-48
2021/04/05 02:36:39;;;;;;;14.93;9.15;;;;;;;4.68;95.47;100605.42;1766842;81;22773;-48
2021/04/05 02:39:08;;;;;;;23.67;13.13;;;;;;;4.67;95.22;100605.88;1766279;80;21188;-48
2021/04/05 02:41:40;;;;;;;25.17;15.05;;;;;;;4.63;94.94;100604.61;1766311;81;21137;-48
2021/04/05 02:44:09;;;;;;;22.05;11.78;;;;;;;4.58;94.90;100602.89;1767350;79;21150;-48
2021/04/05 02:46:38;;;;;;;20.00;12.15;;;;;;;4.53;94.78;100603.41;1762099;80;21163;-48
2021/04/05 02:49:12;;;;;;;14.85;9.80;;;;;;;4.46;94.71;100601.70;1754941;79;21348;-48
2021/04/05 02:51:47;;;;;;;14.95;9.18;;;;;;;4.40;94.74;100611.08;1772259;79;21093;-48
2021/04/05 02:54:20;;;;;;;20.85;12.28;;;;;;;4.35;94.94;100600.97;1779168;79;21223;-48
2021/04/05 02:56:48;;;;;;;26.30;15.23;;;;;;;4.34;94.87;100611.16;1780888;79;21058;-47
2021/04/05 02:59:16;;;;;;;33.67;18.07;;;;;;;4.26;94.67;100607.26;1767678;79;21124;-47
2021/04/05 03:01:43;;;;;;;22.77;13.00;;;;;;;4.20;94.55;100601.56;1779969;79;21708;-47
2021/04/05 03:04:11;;;;;;;21.70;13.78;;;;;;;4.15;94.59;100605.58;1767607;79;21155;-47
2021/04/05 03:06:39;;;;;;;22.02;12.07;;;;;;;4.10;94.61;100597.27;1766579;81;21118;-47
2021/04/05 03:09:07;;;;;;;17.55;10.20;;;;;;;4.06;94.68;100598.16;1747010;81;21136;-48
2021/04/05 03:11:38;;;;;;;17.67;9.33;;;;;;;4.03;94.86;100598.20;1762177;80;21094;-48
2021/04/05 03:14:09;;;;;;;15.80;9.55;;;;;;;3.99;94.96;100600.03;1770060;79;21395;-48
2021/04/05 03:16:38;;;;;;;18.90;9.83;;;;;;;3.94;94.93;100602.72;1772919;79;21097;-48
2021/04/05 03:19:05;;;;;;;20.40;10.38;;;;;;;3.89;94.74;100601.89;1766568;81;21498;-48
2021/04/05 03:21:33;;;;;;;23.70;13.32;;;;;;;3.89;94.74;100601.89;1750948;81;21462;-48
2021/04/05 03:24:01;;;;;;;25.00;14.60;;;;;;;3.86;94.46;100593.94;1755502;80;21204;-48
2021/04/05 03:26:29;;;;;;;25.57;14.95;;;;;;;3.87;94.04;100595.73;1777572;79;21157;-48
2021/04/05 03:28:57;;;;;;;23.77;13.08;;;;;;;3.85;93.86;100594.83;1789226;79;21118;-48
2021/04/05 03:31:27;;;;;;;24.87;13.72;;;;;;;3.82;93.58;100602.83;1764515;80;21114;-49
2021/04/05 03:34:12;;;;;;;23.67;12.90;;;;;;;3.80;93.52;100597.98;1768743;80;21141;-48
2021/04/05 03:37:03;;;;;;;23.50;12.98;;;;;;;3.76;93.47;100598.48;1750932;80;21097;-48
2021/04/05 03:39:31;;;;;;;21.93;13.03;;;;;;;3.73;93.35;100596.72;1759735;80;21499;-48
2021/04/05 03:42:14;;;;;;;27.85;15.65;;;;;;;3.72;93.49;100604.67;1765377;80;21085;-48
2021/04/05 03:45:07;;;;;;;35.05;19.35;;;;;;;3.71;93.45;100603.81;1757263;80;21144;-48
2021/04/05 03:48:07;;;;;;;31.02;17.00;;;;;;;3.73;93.29;100601.12;1755488;80;21109;-49
2021/04/05 03:51:10;;;;;;;24.40;13.05;;;;;;;3.73;92.88;100599.37;1762323;80;21144;-49
2021/04/05 03:53:59;;;;;;;23.85;14.20;;;;;;;3.73;92.75;100602.02;1757261;80;21381;-48
2021/04/05 03:56:45;;;;;;;23.45;13.08;;;;;;;3.74;92.51;100602.89;1753017;80;21109;-48
2021/04/05 03:59:27;;;;;;;18.70;10.40;;;;;;;3.73;92.47;100608.66;1759811;80;21132;-50
2021/04/05 04:01:59;;;;;;;18.80;10.40;;;;;;;3.75;92.55;100610.41;1763085;80;21162;-53
2021/04/05 04:04:43;;;;;;;19.07;11.80;;;;;;;3.73;92.39;100601.12;1764713;80;21074;-49
2021/04/05 04:07:13;;;;;;;33.35;15.93;;;;;;;3.73;92.26;100604.67;1758857;80;21509;-49
2021/04/05 04:09:35;;;;;;;22.55;13.13;;;;;;;3.72;91.45;100608.66;1757359;80;21166;-48
2021/04/05 04:12:05;;;;;;;31.45;16.07;;;;;;;3.71;91.13;100602.48;1721849;80;21156;-49
2021/04/05 04:14:33;;;;;;;34.03;17.73;;;;;;;3.69;90.95;100592.34;1735594;80;21121;-48
2021/04/05 04:17:01;;;;;;;30.35;17.27;;;;;;;3.73;90.58;100599.37;1763230;80;21061;-48
2021/04/05 04:19:28;;;;;;;29.05;16.20;;;;;;;3.76;90.28;100602.89;1758771;80;21354;-50
2021/04/05 04:21:56;;;;;;;29.12;16.15;;;;;;;3.78;90.01;100601.09;1767223;80;21122;-48
2021/04/05 04:24:24;;;;;;;26.00;13.32;;;;;;;3.76;89.41;100595.83;1767807;80;21090;-48
2021/04/05 04:26:52;;;;;;;22.25;11.85;;;;;;;3.76;89.41;100595.83;1722454;80;21137;-48
2021/04/05 04:29:21;;;;;;;23.05;11.73;;;;;;;3.78;88.84;100601.99;1765744;80;21077;-48
2021/04/05 04:31:49;;;;;;;23.60;13.53;;;;;;;3.80;88.84;100600.63;1772618;80;21192;-48
2021/04/05 04:34:18;;;;;;;15.28;9.55;;;;;;;3.79;88.57;100600.20;1787873;80;21092;-48
2021/04/05 04:36:47;;;;;;;15.15;8.63;;;;;;;3.81;88.44;100601.96;1788163;80;21452;-48
2021/04/05 04:39:16;;;;;;;13.30;8.23;;;;;;;3.81;88.27;100594.44;1775833;80;21191;-48
2021/04/05 04:41:46;;;;;;;16.20;8.28;;;;;;;3.80;87.93;100604.61;1767093;80;21148;-48
2021/04/05 04:44:14;;;;;;;21.27;10.05;;;;;;;3.81;88.17;100595.76;1772588;80;21372;-49
2021/04/05 04:46:42;;;;;;;14.55;8.58;;;;;;;3.82;87.78;100602.39;1777297;80;21192;-50
2021/04/05 04:49:11;;;;;;;15.63;8.75;;;;;;;3.84;87.70;100597.05;1761610;80;21077;-50
2021/04/05 04:51:40;;;;;;;16.02;8.35;;;;;;;3.88;87.55;100589.52;1770559;80;21065;-50
2021/04/05 04:54:09;;;;;;;14.33;8.38;;;;;;;3.90;87.47;100591.71;1771215;80;21069;-48
2021/04/05 04:56:37;;;;;;;18.45;9.00;;;;;;;3.91;87.19;100591.25;1776015;80;21425;-47
2021/04/05 04:59:08;;;;;;;18.15;8.45;;;;;;;4.03;87.20;100578.30;1788193;80;21141;-49
2021/04/05 05:01:38;;;;;;;25.12;12.63;;;;;;;4.03;87.20;100578.30;1787230;80;21123;-48
2021/04/05 05:04:11;;;;;;;23.75;14.10;;;;;;;4.10;86.62;100583.53;1784600;80;21231;-48
2021/04/05 05:06:39;;;;;;;29.40;13.68;;;;;;;4.16;86.21;100589.23;1775678;80;21133;-48
2021/04/05 05:09:06;;;;;;;12.60;8.15;;;;;;;4.24;85.98;100587.36;1788198;80;21333;-48
2021/04/05 05:11:34;;;;;;;15.90;8.23;;;;;;;4.40;85.56;100575.23;1788165;80;21144;-49
2021/04/05 05:14:03;;;;;;;12.70;8.28;;;;;;;4.49;85.85;100580.42;1771683;80;21789;-49
2021/04/05 05:16:30;;;;;;;18.98;9.05;;;;;;;4.49;85.85;100580.42;1779051;80;21061;-48
2021/04/05 05:18:59;;;;;;;15.50;7.80;;;;;;;4.58;84.85;100582.98;1771926;80;21062;-49
2021/04/05 05:21:34;;;;;;;16.73;8.88;;;;;;;4.65;84.36;100569.61;1778762;80;21242;-49
2021/04/05 05:24:05;;;;;;;16.93;8.13;;;;;;;4.69;84.43;100576.63;1787285;80;21627;-50
2021/04/05 05:26:34;;;;;;;14.58;8.83;;;;;;;4.76;84.35;100582.75;1766099;80;21120;-50
2021/04/05 05:29:10;;;;;;;13.70;8.03;;;;;;;4.87;84.28;100572.40;1787071;79;21197;-50
2021/04/05 05:31:40;;;;;;;13.95;7.22;;;;;;;5.09;84.10;100580.05;1756422;80;21034;-50
2021/04/05 05:34:12;;;;;;;11.30;7.55;;;;;;;5.31;82.77;100591.69;1777386;80;21509;-49
2021/04/05 05:36:42;;;;;;;16.02;7.85;;;;;;;5.40;81.96;100586.67;1767547;80;21156;-49
2021/04/05 05:39:11;;;;;;;11.43;7.30;;;;;;;5.49;81.17;100590.97;1774291;80;21529;-48
2021/04/05 05:42:03;;;;;;;14.95;8.03;;;;;;;5.58;80.92;100590.80;1748936;80;21073;-49
2021/04/05 05:44:47;;;;;;;12.18;7.33;;;;;;;5.66;80.26;100591.57;1766881;80;21073;-49
2021/04/05 05:47:31;;;;;;;12.90;7.70;;;;;;;5.84;80.48;100589.47;1763800;80;21360;-49
2021/04/05 05:50:34;;;;;;;14.90;7.85;;;;;;;6.05;80.17;100582.03;1762964;80;22992;-48
2021/04/05 05:53:35;;;;;;;14.03;8.10;;;;;;;6.32;79.36;100579.77;1765027;80;21238;-49
2021/04/05 05:56:44;;;;;;;16.82;7.83;;;;;;;6.52;78.45;100580.23;1761608;80;21456;-50
2021/04/05 05:59:32;;;;;;;13.25;7.25;;;;;;;6.74;78.05;100580.63;1762988;80;21153;-49
2021/04/05 06:02:31;;;;;;;16.37;9.55;;;;;;;6.99;76.34;100580.08;1777192;79;21675;-49
2021/04/05 06:05:19;;;;;;;12.28;6.87;;;;;;;7.29;75.69;100575.41;1754699;80;21482;-49
2021/04/05 06:08:20;;;;;;;19.25;10.90;;;;;;;7.76;73.17;100590.26;1772047;80;21054;-49
2021/04/05 06:11:33;;;;;;;20.30;11.53;;;;;;;8.21;73.00;100585.94;1762734;80;21560;-56
2021/04/05 06:14:22;;;;;;;19.02;11.03;;;;;;;9.10;70.56;100590.08;1762330;80;21041;-53
2021/04/05 06:17:13;;;;;;;23.42;14.05;;;;;;;10.20;67.20;100589.06;1771777;80;21479;-55
2021/04/05 06:19:51;;;;;;;22.98;12.63;;;;;;;10.66;61.82;100582.96;1765699;80;21188;-56
2021/04/05 06:22:59;;;;;;;19.25;8.80;;;;;;;10.78;60.94;100598.59;1762452;80;21065;-57
2021/04/05 06:26:07;;;;;;;16.42;9.53;;;;;;;11.00;59.14;100600.45;1750966;80;21501;-56
2021/04/05 06:29:16;;;;;;;10.85;6.78;;;;;;;10.83;56.70;100599.73;1769360;80;21137;-56
2021/04/05 06:32:35;;;;;;;13.25;9.03;;;;;;;10.31;57.60;100594.92;1763379;80;21705;-56
2021/04/05 06:35:29;;;;;;;16.00;10.05;;;;;;;10.01;58.65;100612.48;1772854;80;21231;-55
2021/04/05 06:38:02;;;;;;;12.10;7.50;;;;;;;9.75;59.49;100614.26;1764296;79;21133;-56
2021/04/05 06:40:31;;;;;;;15.45;7.80;;;;;;;9.58;60.11;100613.94;1762236;80;21046;-56
2021/04/05 06:43:43;;;;;;;22.42;14.07;;;;;;;9.51;60.54;100615.08;1764482;80;21057;-56
2021/04/05 06:46:31;;;;;;;12.58;8.50;;;;;;;9.43;59.96;100607.30;1766696;80;21354;-56
2021/04/05 06:49:35;;;;;;;15.38;8.65;;;;;;;9.46;60.71;100612.09;1772392;80;21508;-56
2021/04/05 06:52:37;;;;;;;19.25;10.68;;;;;;;9.52;59.08;100614.16;1780834;80;21109;-55
2021/04/05 06:55:41;;;;;;;18.20;10.72;;;;;;;9.45;59.49;100612.13;1780842;80;21110;-56
2021/04/05 06:58:42;;;;;;;15.93;10.10;;;;;;;9.50;59.12;100611.52;1780915;80;21061;-55
2021/04/05 07:01:44;;;;;;;10.60;7.53;;;;;;;9.58;58.87;100606.80;1780950;80;22277;-56
2021/04/05 07:04:43;;;;;;;21.80;8.70;;;;;;;9.69;58.14;100610.45;1780691;79;21188;-56
2021/04/05 07:07:30;;;;;;;11.48;7.30;;;;;;;9.64;57.36;100616.44;1776485;80;21244;-56
2021/04/05 07:10:11;;;;;;;8.78;5.33;;;;;;;9.59;56.70;100618.36;1745310;80;21077;-54
2021/04/05 07:13:03;;;;;;;14.40;4.97;;;;;;;9.60;56.13;100611.64;1780891;80;21505;-55
2021/04/05 07:16:09;;;;;;;8.30;5.75;;;;;;;9.66;56.60;100611.02;1780865;80;21199;-56
2021/04/05 07:19:02;;;;;;;5.45;3.90;;;;;;;9.77;56.04;100605.30;1780747;80;21073;-55
2021/04/05 07:21:51;;;;;;;9.60;4.00;;;;;;;9.80;54.24;100618.58;1780700;80;21093;-54
2021/04/05 07:24:47;;;;;;;6.05;3.47;;;;;;;9.75;54.03;100624.97;1779854;80;21096;-55
2021/04/05 07:27:26;;;;;;;8.90;4.28;;;;;;;9.72;53.90;100611.69;1780449;80;21582;-55
2021/04/05 07:30:13;;;;;;;6.45;4.17;;;;;;;9.67;54.21;100613.66;1783899;79;21204;-54
2021/04/05 07:32:52;;;;;;;14.53;4.78;;;;;;;9.65;53.39;100622.64;1792423;79;21086;-55
2021/04/05 07:35:42;;;;;;;11.43;5.72;;;;;;;9.62;54.06;100612.94;1798319;79;21122;-54
2021/04/05 07:38:24;;;;;;;11.43;5.47;;;;;;;9.68;54.40;100618.08;1792253;79;21117;-54
2021/04/05 07:41:18;;;;;;;14.85;6.85;;;;;;;9.71;54.00;100615.30;1798434;79;21161;-56
2021/04/05 07:44:17;;;;;;;15.85;4.72;;;;;;;9.77;54.96;100602.62;1798354;79;21356;-55
2021/04/05 07:47:02;;;;;;;15.63;4.83;;;;;;;9.85;54.79;100605.45;1798305;79;21119;-55
2021/04/05 07:49:35;;;;;;;25.60;6.47;;;;;;;9.93;54.83;100603.85;1796956;79;21054;-56
2021/04/05 07:52:07;;;;;;;9.63;3.72;;;;;;;10.01;54.71;100603.59;1798327;79;21116;-57
2021/04/05 07:54:36;;;;;;;8.05;3.27;;;;;;;10.04;52.71;100598.98;1782821;79;21126;-55
2021/04/05 07:57:24;;;;;;;8.58;3.85;;;;;;;10.08;52.76;100590.86;1798296;79;21249;-56
2021/04/05 08:00:14;;;;;;;8.50;4.10;;;;;;;10.08;52.75;100593.54;1798253;79;21122;-56
2021/04/05 08:03:16;;;;;;;12.28;3.80;;;;;;;10.07;53.53;100596.67;1798359;79;21158;-55
2021/04/05 08:05:56;;;;;;;8.75;3.72;;;;;;;10.12;53.28;100592.02;1798361;79;21118;-56
2021/04/05 08:08:52;;;;;;;11.05;3.90;;;;;;;10.15;52.36;100586.54;1798269;79;21106;-56
2021/04/05 08:12:08;;;;;;;6.62;3.67;;;;;;;10.19;52.09;100585.98;1798459;79;21610;-56
2021/04/05 08:14:49;;;;;;;8.38;3.77;;;;;;;10.24;52.24;100585.81;1798287;79;21097;-57
2021/04/05 08:18:04;;;;;;;4.92;2.72;;;;;;;10.35;52.12;100574.70;1791835;79;21184;-56
2021/04/05 08:20:46;;;;;;;6.95;3.80;;;;;;;10.42;50.40;100575.80;1775014;80;21142;-57
2021/04/05 08:23:38;;;;;;;5.10;2.45;;;;;;;10.49;50.19;100588.48;1774717;80;21191;-55
2021/04/05 08:26:36;;;;;;;6.90;2.72;;;;;;;10.47;49.06;100572.92;1774961;80;22202;-56
2021/04/05 08:29:11;;;;;;;7.80;2.50;;;;;;;10.46;46.96;100589.94;1774536;80;21159;-56
2021/04/05 08:31:50;;;;;;;4.35;2.70;;;;;;;10.45;47.94;100573.45;1771892;80;21213;-56
2021/04/05 08:34:52;;;;;;;5.22;3.00;;;;;;;10.36;49.26;100571.09;1771194;80;21055;-61
2021/04/05 08:37:56;;;;;;;7.80;3.92;;;;;;;10.25;49.74;100571.01;1771256;81;21064;-55
2021/04/05 08:40:52;;;;;;;7.12;3.60;;;;;;;10.22;50.69;100568.44;1771244;81;21399;-55
2021/04/05 08:43:37;;;;;;;9.63;4.10;;;;;;;10.30;49.12;100570.84;1783083;80;21094;-56
2021/04/05 08:46:19;;;;;;;11.03;5.65;;;;;;;10.29;49.46;100561.95;1783116;80;21126;-55
2021/04/05 08:48:57;;;;;;;7.10;4.20;;;;;;;10.37;49.75;100564.80;1783178;80;21083;-55
2021/04/05 08:51:46;;;;;;;6.28;3.85;;;;;;;10.41;50.13;100561.11;1783225;80;21115;-56
2021/04/05 08:54:17;;;;;;;11.12;4.17;;;;;;;10.44;49.88;100563.66;1783093;80;21366;-56
2021/04/05 08:56:57;;;;;;;16.23;5.42;;;;;;;10.45;50.37;100558.26;1783082;80;21361;-57
2021/04/05 08:59:42;;;;;;;9.03;3.62;;;;;;;10.47;50.29;100556.84;1754630;80;21130;-57
2021/04/05 09:02:25;;;;;;;6.40;2.47;;;;;;;10.64;49.14;100553.99;1841484;78;28150;-55
2021/04/05 09:04:55;;;;;;;3.90;2.30;;;;;;;10.63;48.57;100550.45;1816803;79;20978;-55
2021/04/05 09:07:49;;;;;;;5.28;2.17;;;;;;;10.76;46.75;100550.86;1816730;79;21693;-56
2021/04/05 09:10:23;;;;;;;5.12;2.20;;;;;;;10.95;45.77;100547.45;1816649;79;20941;-56
2021/04/05 09:12:50;;;;;;;10.90;3.42;;;;;;;11.27;45.42;100546.60;1816705;79;21014;-56
2021/04/05 09:15:45;;;;;;;4.17;2.33;;;;;;;11.49;44.56;100551.08;1816732;79;20926;-56
2021/04/05 09:18:57;;;;;;;6.83;2.67;;;;;;;11.63;43.41;100550.03;1816427;78;21066;-56
2021/04/05 09:21:57;;;;;;;5.67;2.47;;;;;;;11.72;44.61;100554.14;1816700;78;21254;-56
2021/04/05 09:24:43;;;;;;;4.92;2.33;;;;;;;11.66;43.73;100540.50;1816720;79;20975;-55
2021/04/05 09:28:04;;;;;;;6.35;2.37;;;;;;;11.66;44.30;100540.95;1816789;78;21000;-56
2021/04/05 09:31:24;;;;;;;4.33;2.42;;;;;;;11.71;45.06;100534.91;1816757;79;21106;-56
2021/04/05 09:34:18;;;;;;;5.42;2.60;;;;;;;11.82;45.29;100535.33;1816760;79;21099;-55
2021/04/05 09:37:24;;;;;;;4.70;2.30;;;;;;;12.10;43.86;100534.61;1816533;78;21353;-56
2021/04/05 09:40:15;;;;;;;;;;;;;;;12.34;42.15;100532.61;1819349;78;21122;-56
2021/04/05 09:43:03;;;;;;;4.72;2.72;;;;;;;12.38;42.04;100541.42;1816847;79;20385;-54
2021/04/05 09:45:45;;;;;;;3.55;2.37;;;;;;;12.22;42.04;100531.36;1761817;78;21122;-54
2021/04/05 09:48:50;;;;;;;3.37;2.30;;;;;;;12.02;41.07;100540.33;1816721;78;21078;-55
2021/04/05 09:51:43;;;;;;;3.02;2.10;;;;;;;11.88;39.34;100538.22;1770512;78;21691;-55
2021/04/05 09:54:36;;;;;;;3.70;2.20;;;;;;;11.75;39.70;100538.74;1816657;78;21115;-55
2021/04/05 09:57:08;;;;;;;4.28;2.25;;;;;;;11.80;39.55;100528.27;1794346;79;21461;-54
2021/04/05 09:59:45;;;;;;;3.80;2.27;;;;;;;11.90;39.52;100529.14;1816737;79;21534;-55
2021/04/05 10:02:14;;;;;;;3.70;2.20;;;;;;;11.96;39.35;100536.06;1826512;78;21122;-55
2021/04/05 10:04:45;;;;;;;4.35;2.00;;;;;;;12.08;39.17;100531.13;1828561;78;21358;-55
2021/04/05 10:07:14;;;;;;;5.70;2.42;;;;;;;12.24;38.30;100526.78;1828433;77;21110;-55
2021/04/05 10:09:42;;;;;;;3.87;2.45;;;;;;;12.26;37.71;100516.83;1783822;78;21150;-57
2021/04/05 10:12:10;;;;;;;4.83;2.37;;;;;;;12.22;38.21;100519.75;1824821;78;21157;-55
2021/04/05 10:14:41;;;;;;;5.42;2.85;;;;;;;12.31;38.58;100516.17;1773562;79;21151;-57
2021/04/05 10:17:10;;;;;;;5.05;2.60;;;;;;;12.53;38.56;100516.52;1780957;78;21427;-52
2021/04/05 10:19:40;;;;;;;12.45;7.37;;;;;;;12.72;38.07;100518.34;1822652;78;21048;-55
2021/04/05 10:22:17;;;;;;;13.22;8.55;;;;;;;12.71;47.18;100522.83;1838650;78;20969;-53
2021/04/05 10:24:51;;;;;;;10.08;7.03;;;;;;;12.43;51.11;100529.97;1804035;78;21095;-53
2021/04/05 10:27:20;;;;;;;12.10;6.70;;;;;;;12.18;51.47;100524.38;1757536;80;21071;-54
2021/04/05 10:29:50;;;;;;;6.45;3.92;;;;;;;11.99;51.30;100527.86;1779495;80;22339;-52
2021/04/05 10:32:21;;;;;;;3.25;2.40;;;;;;;11.82;45.81;100530.41;1779762;79;21546;-52
2021/04/05 10:34:56;;;;;;;7.55;2.55;;;;;;;11.76;40.27;100527.55;1757368;80;21506;-52
2021/04/05 10:37:31;;;;;;;3.52;2.08;;;;;;;11.80;38.50;100537.66;1779876;80;21131;-52
2021/04/05 10:39:59;;;;;;;3.92;2.37;;;;;;;11.83;39.47;100521.45;1778335;80;21117;-52
2021/04/05 10:42:34;;;;;;;7.03;2.40;;;;;;;11.88;39.62;100512.22;1749502;80;21213;-52
2021/04/05 10:45:13;;;;;;;5.10;2.52;;;;;;;11.99;40.05;100513.56;1757228;81;21173;-53
2021/04/05 10:48:14;;;;;;;8.13;2.65;;;;;;;12.15;40.11;100521.84;1737655;81;21169;-52
2021/04/05 10:50:54;;;;;;;3.58;2.47;;;;;;;12.27;38.90;100506.97;1779769;80;21126;-52
2021/04/05 10:53:23;;;;;;;4.58;2.20;;;;;;;12.25;37.77;100513.73;1757197;81;21110;-52
2021/04/05 10:55:58;;;;;;;4.30;2.40;;;;;;;12.19;37.94;100507.31;1779836;80;21197;-52
2021/04/05 10:58:31;;;;;;;4.20;2.15;;;;;;;12.24;37.95;100505.28;1779689;80;20956;-52
2021/04/05 11:01:01;;;;;;;3.60;2.42;;;;;;;12.29;38.13;100510.45;1755415;81;21079;-51
2021/04/05 11:03:29;;;;;;;5.12;2.80;;;;;;;12.32;37.85;100506.27;1714757;81;21123;-53
2021/04/05 11:05:59;;;;;;;4.22;2.40;;;;;;;12.27;38.01;100493.53;1771188;81;21055;-52
2021/04/05 11:08:33;;;;;;;5.15;2.65;;;;;;;12.28;37.63;100502.88;1771378;81;21383;-52
2021/04/05 11:11:10;;;;;;;;;;;;;;;12.40;36.51;100504.58;1751779;81;21135;-52
2021/04/05 11:13:41;;;;;;;6.20;2.08;;;;;;;12.55;36.19;100498.48;1771373;81;20243;-52
2021/04/05 11:16:11;;;;;;;9.68;2.17;;;;;;;12.67;35.79;100498.83;1749229;81;21222;-52
2021/04/05 11:19:00;;;;;;;4.55;2.47;;;;;;;12.76;35.48;100495.72;1759978;81;21155;-53
2021/04/05 11:21:44;;;;;;;3.67;2.30;;;;;;;12.79;36.20;100502.29;1756148;81;22273;-51
2021/04/05 11:24:12;;;;;;;3.25;2.20;;;;;;;12.75;35.89;100499.36;1756049;81;21155;-52
2021/04/05 11:26:42;;;;;;;5.72;2.50;;;;;;;12.76;36.45;100491.69;1756125;81;21167;-53
2021/04/05 11:29:14;;;;;;;4.62;2.40;;;;;;;12.80;36.45;100500.00;1756037;81;21108;-53
2021/04/05 11:31:44;;;;;;;5.60;2.10;;;;;;;12.83;36.04;100490.43;1756019;81;21599;-53
2021/04/05 11:34:15;;;;;;;4.17;2.00;;;;;;;12.79;35.51;100486.16;1756146;81;21385;-52
2021/04/05 11:36:48;;;;;;;3.30;1.87;;;;;;;12.71;36.16;100479.80;1756079;81;21575;-52
2021/04/05 11:39:19;;;;;;;5.42;2.08;;;;;;;12.68;35.20;100476.37;1756166;81;21229;-52
2021/04/05 11:41:52;;;;;;;4.87;2.10;;;;;;;12.66;34.64;100476.92;1759884;81;21123;-52
2021/04/05 11:44:23;;;;;;;4.92;1.90;;;;;;;12.60;34.61;100474.08;1748521;82;21624;-52
2021/04/05 11:46:50;;;;;;;6.30;2.40;;;;;;;12.64;35.42;100476.12;1757351;81;21219;-52
2021/04/05 11:49:18;;;;;;;3.58;1.82;;;;;;;12.74;34.93;100462.16;1673154;82;21062;-53
2021/04/05 11:51:54;;;;;;;4.37;2.20;;;;;;;12.84;34.27;100459.89;1757662;81;21170;-51
2021/04/05 11:54:32;;;;;;;5.72;2.10;;;;;;;12.89;34.85;100457.84;1756791;81;21161;-52
2021/04/05 11:57:02;;;;;;;5.22;2.10;;;;;;;12.99;35.54;100455.56;1748864;82;21173;-50
2021/04/05 11:59:30;;;;;;;5.05;2.30;;;;;;;13.01;34.53;100451.46;1758413;81;21378;-51
2021/04/05 12:02:01;;;;;;;4.85;2.20;;;;;;;12.95;34.71;100454.47;1819665;78;21098;-51
2021/04/05 12:04:43;;;;;;;4.67;2.27;;;;;;;12.92;35.50;100457.28;1719946;82;21170;-51
2021/04/05 12:07:20;;;;;;;3.12;1.87;;;;;;;12.97;35.92;100455.27;1719959;82;21589;-50
2021/04/05 12:10:06;;;;;;;3.95;1.90;;;;;;;13.00;35.95;100447.88;1748977;82;21502;-51
2021/04/05 12:12:44;;;;;;;5.58;2.22;;;;;;;13.04;35.42;100452.19;1758418;81;21199;-51